Time;durP1;ratioP1;P1;durP2;ratioP2;P2;SDS_P1;SDS_P2;PMS_P1;PMS_P2;Temp;Humidity;BMP_temperature;BMP_pressure;BME280_temperature;BME280_humidity;BME280_pressure;Samples;Min_cycle;Max_cycle;Signal;HPM_P1;HPM_P2
2023/06/24 00:01:23;;;;;;;10.50;9.50;;;18.00;99.90;;;;;;5093432;28;20219;-70
2023/06/24 00:03:52;;;;;;;10.03;9.03;;;18.10;99.90;;;;;;5093937;28;20638;-69
2023/06/24 00:06:19;;;;;;;10.00;9.00;;;18.10;99.90;;;;;;5093566;28;20212;-69
2023/06/24 00:08:48;;;;;;;9.73;8.73;;;18.00;99.90;;;;;;5075590;28;20296;-69
2023/06/24 00:11:15;;;;;;;10.13;9.27;;;18.00;99.90;;;;;;5092984;28;20188;-70
2023/06/24 00:13:41;;;;;;;9.63;8.77;;;18.00;99.90;;;;;;5093630;28;20209;-70
2023/06/24 00:16:07;;;;;;;9.93;8.93;;;18.00;99.90;;;;;;5093391;28;20224;-70
2023/06/24 00:18:34;;;;;;;10.47;9.63;;;18.00;99.90;;;;;;5093789;28;20623;-70
2023/06/24 00:21:04;;;;;;;11.83;10.73;;;17.90;99.90;;;;;;5093362;28;20176;-70
2023/06/24 00:23:36;;;;;;;11.13;10.17;;;17.90;99.90;;;;;;5093336;28;20174;-70
2023/06/24 00:26:02;;;;;;;10.30;9.40;;;17.90;99.90;;;;;;5093308;28;20205;-70
2023/06/24 00:28:27;;;;;;;11.27;10.20;;;17.80;99.90;;;;;;5093541;28;20590;-70
2023/06/24 00:30:53;;;;;;;10.63;9.63;;;17.80;99.90;;;;;;5091620;28;20261;-70
2023/06/24 00:33:21;;;;;;;11.40;10.30;;;17.80;99.90;;;;;;5093187;28;20173;-70
2023/06/24 00:35:47;;;;;;;13.00;9.67;;;17.70;99.90;;;;;;5093318;28;20293;-70
2023/06/24 00:38:13;;;;;;;16.00;10.43;;;17.70;99.90;;;;;;5092950;28;20256;-70
2023/06/24 00:40:39;;;;;;;11.10;10.10;;;17.60;99.90;;;;;;5092773;28;20220;-70
2023/06/24 00:43:05;;;;;;;12.40;10.10;;;17.60;99.90;;;;;;5074760;28;20189;-70
2023/06/24 00:45:31;;;;;;;12.20;11.00;;;17.50;99.90;;;;;;5092730;28;20299;-70
2023/06/24 00:48:01;;;;;;;12.60;10.80;;;17.50;99.90;;;;;;5092983;28;20256;-70
2023/06/24 00:50:26;;;;;;;11.13;9.83;;;17.50;99.90;;;;;;5092738;28;20170;-71
2023/06/24 00:52:52;;;;;;;13.27;9.90;;;17.50;99.90;;;;;;5093087;28;20248;-70
2023/06/24 00:55:20;;;;;;;10.43;9.33;;;17.50;99.90;;;;;;5092594;28;20193;-70
2023/06/24 00:57:50;;;;;;;10.90;9.90;;;17.50;99.90;;;;;;5092869;28;20590;-70
2023/06/24 01:00:18;;;;;;;12.10;10.83;;;17.50;99.90;;;;;;5092450;28;20260;-71
2023/06/24 01:02:47;;;;;;;11.70;10.17;;;17.50;99.90;;;;;;5092742;28;20644;-70
2023/06/24 01:05:12;;;;;;;10.30;9.30;;;17.50;99.90;;;;;;5092602;28;20197;-70
2023/06/24 01:07:39;;;;;;;14.40;11.17;;;17.50;99.90;;;;;;5092132;28;20220;-70
2023/06/24 01:10:07;;;;;;;11.20;10.20;;;17.40;99.90;;;;;;5092176;28;20169;-70
2023/06/24 01:12:43;;;;;;;12.17;10.87;;;17.40;99.90;;;;;;5092858;28;20253;-70
2023/06/24 01:15:10;;;;;;;12.60;10.57;;;17.40;99.90;;;;;;5092442;28;20195;-70
2023/06/24 01:17:47;;;;;;;10.80;9.60;;;17.40;99.90;;;;;;5092435;28;20170;-70
2023/06/24 01:20:22;;;;;;;11.60;10.60;;;17.30;99.90;;;;;;5092112;28;20196;-70
2023/06/24 01:23:13;;;;;;;15.60;10.53;;;17.30;99.90;;;;;;5092475;28;20183;-69
2023/06/24 01:26:18;;;;;;;14.47;10.60;;;17.30;99.90;;;;;;5065288;28;20217;-70
2023/06/24 01:29:25;;;;;;;14.07;11.13;;;17.30;99.90;;;;;;5092301;28;20180;-69
2023/06/24 01:32:29;;;;;;;11.30;10.10;;;17.20;99.90;;;;;;5072441;28;20179;-70
2023/06/24 01:35:09;;;;;;;10.93;9.93;;;17.20;99.90;;;;;;5009228;28;20207;-70
2023/06/24 01:37:43;;;;;;;11.97;9.97;;;17.20;99.90;;;;;;5070024;28;20272;-70
2023/06/24 01:40:25;;;;;;;11.77;10.57;;;17.20;99.90;;;;;;5091683;28;20168;-70
2023/06/24 01:42:51;;;;;;;13.73;10.97;;;17.20;99.90;;;;;;5092026;28;20256;-70
2023/06/24 01:45:20;;;;;;;11.67;10.57;;;17.20;99.90;;;;;;5091895;28;20213;-69
2023/06/24 01:47:48;;;;;;;10.37;9.37;;;17.20;99.90;;;;;;5091947;28;20219;-70
2023/06/24 01:50:19;;;;;;;13.53;10.60;;;17.20;99.90;;;;;;5091596;28;20215;-70
2023/06/24 01:52:46;;;;;;;11.03;9.90;;;17.20;99.90;;;;;;5091916;28;20222;-70
2023/06/24 01:55:16;;;;;;;11.97;9.77;;;17.20;99.90;;;;;;5091777;28;20221;-70
2023/06/24 01:57:46;;;;;;;11.70;10.33;;;17.10;99.90;;;;;;5091728;28;20196;-70
2023/06/24 02:00:12;;;;;;;10.07;9.17;;;17.10;99.90;;;;;;5091407;28;20658;-70
2023/06/24 02:02:39;;;;;;;11.43;10.23;;;17.10;99.90;;;;;;5091798;28;20688;-70
2023/06/24 02:05:06;;;;;;;10.90;9.90;;;17.10;99.90;;;;;;5091565;28;20192;-70
2023/06/24 02:07:33;;;;;;;12.87;9.93;;;17.00;99.90;;;;;;5091439;28;20197;-70
2023/06/24 02:10:00;;;;;;;11.13;10.10;;;17.00;99.90;;;;;;5091415;28;20166;-70
2023/06/24 02:12:27;;;;;;;10.93;10.07;;;17.00;99.90;;;;;;5091708;28;20234;-70
2023/06/24 02:14:55;;;;;;;11.23;9.60;;;17.00;99.90;;;;;;5073564;28;20578;-69
2023/06/24 02:17:23;;;;;;;13.33;12.13;;;17.00;99.90;;;;;;5091575;28;20539;-69
2023/06/24 02:19:50;;;;;;;12.67;10.90;;;17.00;99.90;;;;;;5091429;28;20197;-70
2023/06/24 02:22:17;;;;;;;12.07;10.77;;;16.90;99.90;;;;;;5091361;28;20184;-70
2023/06/24 02:24:43;;;;;;;12.03;10.30;;;16.90;99.90;;;;;;5073294;28;20207;-70
2023/06/24 02:27:11;;;;;;;11.37;10.33;;;17.00;99.90;;;;;;5091375;28;20201;-70
2023/06/24 02:29:39;;;;;;;11.93;10.73;;;16.90;99.90;;;;;;5072659;28;20260;-70
2023/06/24 02:32:05;;;;;;;13.97;10.57;;;16.80;99.90;;;;;;5089693;28;20571;-70
2023/06/24 02:34:31;;;;;;;12.30;11.00;;;16.80;99.90;;;;;;5091335;28;20235;-70
2023/06/24 02:36:56;;;;;;;12.47;10.37;;;16.70;99.90;;;;;;5091351;28;20176;-70
2023/06/24 02:39:22;;;;;;;12.17;10.13;;;16.70;99.90;;;;;;5091599;28;20545;-70
2023/06/24 02:41:49;;;;;;;11.50;10.30;;;16.70;99.90;;;;;;5091158;28;20170;-70
2023/06/24 02:44:15;;;;;;;12.93;11.30;;;16.70;99.90;;;;;;5091285;28;20260;-70
2023/06/24 02:46:42;;;;;;;12.97;11.03;;;16.70;99.90;;;;;;5091129;28;20205;-70
2023/06/24 02:49:10;;;;;;;13.43;10.30;;;16.70;99.90;;;;;;5091017;28;20169;-70
2023/06/24 02:51:38;;;;;;;12.70;11.33;;;16.70;99.90;;;;;;5094653;28;20195;-70
2023/06/24 02:54:04;;;;;;;14.17;12.17;;;16.70;99.90;;;;;;5095212;28;20165;-70
2023/06/24 02:56:31;;;;;;;14.80;12.60;;;16.60;99.90;;;;;;5094981;28;20193;-70
2023/06/24 02:58:57;;;;;;;15.77;13.17;;;16.60;99.90;;;;;;5095107;28;20173;-70
2023/06/24 03:01:25;;;;;;;15.30;12.90;;;16.70;99.90;;;;;;5094655;28;20242;-70
2023/06/24 03:03:54;;;;;;;16.70;13.83;;;16.60;99.90;;;;;;5094618;28;20174;-70
2023/06/24 03:06:21;;;;;;;19.80;13.93;;;16.60;99.90;;;;;;5094720;28;20286;-70
2023/06/24 03:08:48;;;;;;;14.57;12.93;;;16.60;99.90;;;;;;5095048;28;20207;-70
2023/06/24 03:11:14;;;;;;;17.53;13.90;;;16.60;99.90;;;;;;5094526;28;20526;-70
2023/06/24 03:13:40;;;;;;;15.70;14.10;;;16.50;99.90;;;;;;5094884;28;20261;-70
2023/06/24 03:16:05;;;;;;;23.47;14.17;;;16.50;99.90;;;;;;5076529;28;20283;-70
2023/06/24 03:18:31;;;;;;;20.77;13.70;;;16.50;99.90;;;;;;5076602;28;20196;-70
2023/06/24 03:20:57;;;;;;;19.40;14.97;;;16.60;99.90;;;;;;5094410;28;20654;-70
2023/06/24 03:23:22;;;;;;;20.13;14.77;;;16.50;99.90;;;;;;5094574;28;20181;-69
2023/06/24 03:25:48;;;;;;;17.83;15.87;;;16.50;99.90;;;;;;5094551;28;20200;-70
2023/06/24 03:28:14;;;;;;;17.80;15.93;;;16.50;99.90;;;;;;5094643;28;20193;-70
2023/06/24 03:30:39;;;;;;;18.73;15.67;;;16.50;99.90;;;;;;5092777;28;20673;-70
2023/06/24 03:33:06;;;;;;;20.17;15.40;;;16.60;99.90;;;;;;5094472;28;20184;-70
2023/06/24 03:35:32;;;;;;;21.43;16.33;;;16.60;99.90;;;;;;5094310;28;20188;-69
2023/06/24 03:37:58;;;;;;;17.50;14.40;;;16.60;99.90;;;;;;5094395;28;20162;-70
2023/06/24 03:40:23;;;;;;;20.83;13.87;;;16.50;99.90;;;;;;5075960;28;20230;-69
2023/06/24 03:42:49;;;;;;;22.93;14.90;;;16.50;99.90;;;;;;5094417;28;20169;-70
2023/06/24 03:45:15;;;;;;;16.00;14.23;;;16.50;99.90;;;;;;5093926;28;20272;-69
2023/06/24 03:47:40;;;;;;;16.03;14.33;;;16.50;99.90;;;;;;5093927;28;20173;-70
2023/06/24 03:50:06;;;;;;;17.43;14.13;;;16.60;99.90;;;;;;5093678;28;20205;-70
2023/06/24 03:52:32;;;;;;;16.87;14.70;;;16.60;99.90;;;;;;5094207;28;20261;-70
2023/06/24 03:54:58;;;;;;;17.00;12.90;;;16.60;99.90;;;;;;5094133;28;20220;-70
2023/06/24 03:57:23;;;;;;;16.83;13.70;;;16.60;99.90;;;;;;5075743;28;20796;-70
2023/06/24 03:59:49;;;;;;;18.33;14.90;;;16.70;99.90;;;;;;5093404;28;20173;-69
2023/06/24 04:02:15;;;;;;;18.73;15.00;;;16.70;99.90;;;;;;5093081;28;20177;-70
2023/06/24 04:04:41;;;;;;;18.83;12.80;;;16.80;99.90;;;;;;5074858;28;20197;-70
2023/06/24 04:07:06;;;;;;;19.37;14.77;;;16.80;99.90;;;;;;5075383;28;20213;-70
2023/06/24 04:09:34;;;;;;;20.83;14.30;;;16.80;99.90;;;;;;5075339;28;20262;-70
2023/06/24 04:11:59;;;;;;;15.83;14.30;;;16.90;99.90;;;;;;5093719;28;20162;-70
2023/06/24 04:14:25;;;;;;;16.53;14.00;;;16.90;99.90;;;;;;5093686;28;20536;-70
2023/06/24 04:16:50;;;;;;;15.13;13.67;;;16.90;99.90;;;;;;5093457;28;20177;-70
2023/06/24 04:19:16;;;;;;;24.73;13.93;;;17.00;99.90;;;;;;5093256;28;20643;-70
2023/06/24 04:21:42;;;;;;;18.47;14.33;;;17.10;99.90;;;;;;5093541;28;20178;-70
2023/06/24 04:24:07;;;;;;;15.87;14.27;;;17.10;99.90;;;;;;5075440;28;20213;-70
2023/06/24 04:26:33;;;;;;;15.97;14.13;;;17.20;99.90;;;;;;5093486;28;20748;-70
2023/06/24 04:28:58;;;;;;;16.33;14.63;;;17.30;99.90;;;;;;5093401;28;20241;-70
2023/06/24 04:31:25;;;;;;;14.37;12.80;;;17.30;99.90;;;;;;5092288;28;20690;-70
2023/06/24 04:33:51;;;;;;;16.90;13.87;;;17.40;99.90;;;;;;5093086;28;20183;-70
2023/06/24 04:36:16;;;;;;;15.23;13.60;;;17.50;99.90;;;;;;5093187;28;20333;-70
2023/06/24 04:38:42;;;;;;;14.53;12.97;;;17.60;99.90;;;;;;5093332;28;20631;-70
2023/06/24 04:41:07;;;;;;;15.03;13.50;;;17.80;99.90;;;;;;5093019;28;20174;-70
2023/06/24 04:43:35;;;;;;;15.30;13.57;;;18.00;99.90;;;;;;5093102;28;20539;-69
2023/06/24 04:46:01;;;;;;;13.77;11.60;;;18.10;99.90;;;;;;5092970;28;20374;-70
2023/06/24 04:48:27;;;;;;;12.17;10.97;;;18.30;99.90;;;;;;5093227;28;20208;-71
2023/06/24 04:50:54;;;;;;;15.70;12.47;;;18.50;99.90;;;;;;5092512;28;20209;-70
2023/06/24 04:53:20;;;;;;;15.23;12.37;;;18.60;99.90;;;;;;5092772;28;20173;-70
2023/06/24 04:55:46;;;;;;;12.83;11.63;;;18.60;99.90;;;;;;5092804;28;20197;-69
2023/06/24 04:58:11;;;;;;;13.47;11.23;;;18.80;99.90;;;;;;5092956;28;20585;-70
2023/06/24 05:00:37;;;;;;;15.70;10.70;;;19.00;99.90;;;;;;5092525;28;20185;-70
2023/06/24 05:03:02;;;;;;;16.20;9.93;;;19.20;99.90;;;;;;5092823;28;20535;-70
2023/06/24 05:05:28;;;;;;;12.20;10.33;;;19.50;99.90;;;;;;5092637;28;20286;-70
2023/06/24 05:07:54;;;;;;;12.93;10.60;;;19.70;99.90;;;;;;5092258;28;20669;-70
2023/06/24 05:10:19;;;;;;;13.10;12.10;;;20.00;99.90;;;;;;5092324;28;20179;-70
2023/06/24 05:12:45;;;;;;;16.70;15.40;;;20.30;99.90;;;;;;5091697;28;20696;-70
2023/06/24 05:15:10;;;;;;;12.00;10.80;;;20.50;99.90;;;;;;5092414;28;20212;-70
2023/06/24 05:17:36;;;;;;;13.93;12.57;;;20.80;99.90;;;;;;5092161;28;20685;-70
2023/06/24 05:20:03;;;;;;;16.35;14.82;;;21.10;99.90;;;;;;5092086;28;20180;-71
2023/06/24 05:22:28;;;;;;;11.52;10.40;;;21.30;99.90;;;;;;5074229;28;20205;-70
2023/06/24 05:24:54;;;;;;;14.40;11.25;;;21.60;99.90;;;;;;5092079;28;20225;-70
2023/06/24 05:27:20;;;;;;;184.75;35.72;;;21.70;99.90;;;;;;5092242;28;20246;-70
2023/06/24 05:29:46;;;;;;;12.00;9.50;;;21.90;99.90;;;;;;5091886;28;20185;-70
2023/06/24 05:32:11;;;;;;;10.80;9.40;;;22.10;99.90;;;;;;5091309;28;20227;-70
2023/06/24 05:34:37;;;;;;;18.52;11.70;;;22.20;99.90;;;;;;5092220;28;20228;-69
2023/06/24 05:37:03;;;;;;;13.70;11.20;;;22.30;99.90;;;;;;5091993;28;20177;-69
2023/06/24 05:39:28;;;;;;;11.68;9.73;;;22.40;99.90;;;;;;5091965;28;20562;-70
2023/06/24 05:41:54;;;;;;;12.98;8.93;;;22.60;99.90;;;;;;5091716;28;20334;-70
2023/06/24 05:44:20;;;;;;;16.85;15.07;;;22.80;99.90;;;;;;5092051;28;20181;-70
2023/06/24 05:46:46;;;;;;;17.45;15.73;;;23.00;99.90;;;;;;5092288;28;20208;-70
2023/06/24 05:49:12;;;;;;;11.85;8.77;;;23.30;99.90;;;;;;5091664;28;20173;-70
2023/06/24 05:51:37;;;;;;;9.77;8.07;;;23.60;99.90;;;;;;5091736;28;20176;-70
2023/06/24 05:54:03;;;;;;;10.57;9.48;;;24.00;99.90;;;;;;5091773;28;20719;-71
2023/06/24 05:56:29;;;;;;;13.48;9.57;;;24.20;99.90;;;;;;5091870;28;20604;-70
2023/06/24 05:58:55;;;;;;;10.60;9.57;;;24.40;99.90;;;;;;5091526;28;20181;-70
2023/06/24 06:01:21;;;;;;;15.50;9.38;;;24.70;99.90;;;;;;5091534;28;20598;-71
2023/06/24 06:03:46;;;;;;;9.35;8.50;;;25.00;99.90;;;;;;5091613;28;20170;-70
2023/06/24 06:06:12;;;;;;;9.02;8.23;;;25.10;99.90;;;;;;5091557;28;20230;-71
2023/06/24 06:08:37;;;;;;;9.75;8.32;;;25.10;99.90;;;;;;5088765;28;20645;-71
2023/06/24 06:11:03;;;;;;;11.18;7.60;;;24.80;99.90;;;;;;5071038;28;20166;-70
2023/06/24 06:13:29;;;;;;;9.23;7.90;;;24.60;99.90;;;;;;5071681;28;20170;-71
2023/06/24 06:15:55;;;;;;;9.73;7.35;;;24.60;99.90;;;;;;5081769;28;20545;-70
2023/06/24 06:18:21;;;;;;;9.05;8.25;;;24.70;99.90;;;;;;5091444;28;20166;-70
2023/06/24 06:20:46;;;;;;;9.50;8.63;;;24.80;99.90;;;;;;5091011;28;20548;-70
2023/06/24 06:23:12;;;;;;;10.88;9.57;;;24.90;99.90;;;;;;5091432;28;20261;-71
2023/06/24 06:25:38;;;;;;;10.52;9.63;;;25.10;99.90;;;;;;5090975;28;20205;-70
2023/06/24 06:28:04;;;;;;;9.52;8.68;;;25.20;99.90;;;;;;5091212;28;20471;-70
2023/06/24 06:30:30;;;;;;;10.68;8.50;;;25.20;99.90;;;;;;5089839;28;20193;-71
2023/06/24 06:32:55;;;;;;;11.30;7.43;;;25.40;99.90;;;;;;5091081;28;20254;-70
2023/06/24 06:35:21;;;;;;;9.82;8.95;;;25.10;99.90;;;;;;5091318;28;20205;-71
2023/06/24 06:37:51;;;;;;;11.48;10.55;;;25.00;99.90;;;;;;5091009;28;20173;-70
2023/06/24 06:40:18;;;;;;;9.93;8.52;;;24.60;99.90;;;;;;5091056;28;20184;-70
2023/06/24 06:42:43;;;;;;;9.07;7.20;;;24.40;99.90;;;;;;5073354;28;20174;-71
2023/06/24 06:45:09;;;;;;;8.68;7.45;;;24.40;99.90;;;;;;5091322;28;20212;-70
2023/06/24 06:47:35;;;;;;;9.35;8.27;;;24.50;99.90;;;;;;5091594;28;20683;-70
2023/06/24 06:50:00;;;;;;;11.93;7.82;;;25.10;99.90;;;;;;5090719;28;20174;-71
2023/06/24 06:52:28;;;;;;;6.90;5.80;;;25.70;99.90;;;;;;5089959;28;20178;-70
2023/06/24 06:54:53;;;;;;;8.35;7.25;;;26.10;99.90;;;;;;5091182;28;20276;-71
2023/06/24 06:57:19;;;;;;;9.55;8.55;;;26.50;99.90;;;;;;5091163;28;20609;-71
2023/06/24 06:59:44;;;;;;;7.82;7.13;;;26.60;99.90;;;;;;5089807;28;20189;-71
2023/06/24 07:02:10;;;;;;;8.38;7.65;;;26.60;99.90;;;;;;5058661;28;20632;-71
2023/06/24 07:04:36;;;;;;;9.70;7.80;;;26.90;99.90;;;;;;5071279;28;20261;-70
2023/06/24 07:07:02;;;;;;;8.52;6.80;;;26.90;99.90;;;;;;5088956;28;20209;-70
2023/06/24 07:09:28;;;;;;;9.68;7.10;;;26.90;99.90;;;;;;5091360;28;20166;-71
2023/06/24 07:11:53;;;;;;;8.10;6.75;;;27.20;99.90;;;;;;5091587;28;20234;-71
2023/06/24 07:14:19;;;;;;;7.82;7.07;;;27.60;99.90;;;;;;5091400;28;20170;-69
2023/06/24 07:16:44;;;;;;;9.45;7.38;;;27.60;99.90;;;;;;5091502;28;20230;-70
2023/06/24 07:19:10;;;;;;;7.57;6.88;;;27.60;99.90;;;;;;5091223;28;20213;-70
2023/06/24 07:21:36;;;;;;;7.93;7.20;;;27.80;99.90;;;;;;5091059;28;20173;-70
2023/06/24 07:24:01;;;;;;;8.20;7.40;;;28.20;99.90;;;;;;5085966;28;20200;-71
2023/06/24 07:26:28;;;;;;;8.25;6.28;;;28.30;99.90;;;;;;5070964;28;20706;-71
2023/06/24 07:28:58;;;;;;;6.03;5.45;;;28.40;99.90;;;;;;5071216;28;20176;-70
2023/06/24 07:31:23;;;;;;;7.57;6.45;;;28.50;99.90;;;;;;5071666;28;20171;-71
2023/06/24 07:33:49;;;;;;;7.53;6.82;;;28.70;99.90;;;;;;5071244;28;20169;-69
2023/06/24 07:36:15;;;;;;;8.48;5.97;;;29.00;99.90;;;;;;5071924;28;20535;-69
2023/06/24 07:38:40;;;;;;;8.75;6.88;;;29.50;99.90;;;;;;5074977;28;20224;-71
2023/06/24 07:41:06;;;;;;;6.65;6.03;;;29.70;99.90;;;;;;5094142;28;20169;-71
2023/06/24 07:43:31;;;;;;;6.07;5.35;;;30.30;99.90;;;;;;5094596;28;20252;-69
2023/06/24 07:45:57;;;;;;;5.90;5.40;;;30.80;99.90;;;;;;5094320;28;20564;-71
2023/06/24 07:48:23;;;;;;;6.10;5.50;;;30.90;99.90;;;;;;5094775;28;20170;-70
2023/06/24 07:50:49;;;;;;;5.43;4.93;;;30.80;99.90;;;;;;5093922;28;20273;-70
2023/06/24 07:53:14;;;;;;;5.88;5.38;;;30.80;99.90;;;;;;5095167;28;20177;-71
2023/06/24 07:55:40;;;;;;;9.02;5.40;;;31.00;99.90;;;;;;5093404;28;20239;-71
2023/06/24 07:58:05;;;;;;;5.50;5.00;;;31.30;99.90;;;;;;5093290;28;20329;-71
2023/06/24 08:00:31;;;;;;;5.93;5.43;;;31.50;99.90;;;;;;5094702;28;20745;-71
2023/06/24 08:02:59;;;;;;;7.30;5.20;;;31.40;99.90;;;;;;5094082;28;20176;-69
2023/06/24 08:05:26;;;;;;;5.20;4.70;;;30.90;99.90;;;;;;5075411;28;20193;-69
2023/06/24 08:07:52;;;;;;;5.55;4.93;;;30.80;99.90;;;;;;5093992;28;20174;-69
2023/06/24 08:10:18;;;;;;;6.10;4.85;;;31.10;99.90;;;;;;5093236;28;20203;-68
2023/06/24 08:12:44;;;;;;;6.50;5.90;;;31.40;99.90;;;;;;5075591;28;20165;-69
2023/06/24 08:15:10;;;;;;;5.72;4.95;;;31.20;99.90;;;;;;5093742;28;20194;-69
2023/06/24 08:17:36;;;;;;;7.03;5.53;;;30.90;99.90;;;;;;5095026;28;20203;-69
2023/06/24 08:20:03;;;;;;;5.80;5.30;;;31.00;99.90;;;;;;5093775;28;20678;-69
2023/06/24 08:22:28;;;;;;;6.88;5.85;;;31.40;99.90;;;;;;5093932;28;20631;-68
2023/06/24 08:24:54;;;;;;;6.57;5.70;;;31.40;99.90;;;;;;5093635;28;20186;-69
2023/06/24 08:27:19;;;;;;;7.57;6.25;;;31.40;99.90;;;;;;5093381;28;20575;-69
2023/06/24 08:29:45;;;;;;;7.93;6.70;;;31.10;99.90;;;;;;5087679;28;20269;-69
2023/06/24 08:32:11;;;;;;;7.20;5.88;;;31.00;99.90;;;;;;5093302;28;20180;-69
2023/06/24 08:34:36;;;;;;;7.55;6.10;;;31.10;99.90;;;;;;5093407;28;20639;-68
2023/06/24 08:37:02;;;;;;;7.55;6.68;;;31.20;99.90;;;;;;5093264;28;20218;-69
2023/06/24 08:39:28;;;;;;;8.23;6.80;;;31.30;99.90;;;;;;5093691;28;20200;-69
2023/06/24 08:41:53;;;;;;;9.18;6.80;;;31.40;99.90;;;;;;5093138;28;20228;-69
2023/06/24 08:44:19;;;;;;;7.88;5.93;;;31.40;99.90;;;;;;5093087;28;20177;-69
2023/06/24 08:46:45;;;;;;;9.57;6.93;;;31.90;99.90;;;;;;5074530;28;20221;-69
2023/06/24 08:49:29;;;;;;;7.40;6.32;;;31.90;99.90;;;;;;5092741;28;20228;-69
2023/06/24 08:52:08;;;;;;;8.65;6.45;;;31.60;99.90;;;;;;5092787;28;20512;-68
2023/06/24 08:54:40;;;;;;;8.27;6.68;;;31.80;99.90;;;;;;5093051;28;20567;-71
2023/06/24 08:57:07;;;;;;;7.45;6.65;;;32.00;99.90;;;;;;5093270;28;20318;-70
2023/06/24 08:59:37;;;;;;;9.20;6.50;;;32.30;99.90;;;;;;5093178;28;20252;-71
2023/06/24 09:02:03;;;;;;;8.68;6.93;;;32.20;99.90;;;;;;5084196;28;20531;-69
2023/06/24 09:04:28;;;;;;;7.45;6.47;;;32.50;99.90;;;;;;5083536;28;20188;-69
2023/06/24 09:06:54;;;;;;;7.28;6.50;;;32.60;99.90;;;;;;5094058;28;20211;-68
2023/06/24 09:09:21;;;;;;;8.35;6.50;;;32.60;99.90;;;;;;5092473;28;20663;-68
2023/06/24 09:11:57;;;;;;;6.70;6.03;;;32.40;99.90;;;;;;5092438;28;20177;-68
2023/06/24 09:14:24;;;;;;;7.00;6.32;;;32.50;99.90;;;;;;5092614;28;20181;-69
2023/06/24 09:16:53;;;;;;;10.40;7.63;;;32.80;99.90;;;;;;5093496;28;20181;-69
2023/06/24 09:19:29;;;;;;;9.20;7.38;;;33.40;99.90;;;;;;5074764;28;20712;-68
2023/06/24 09:22:07;;;;;;;7.30;6.60;;;33.80;99.90;;;;;;5092267;28;20185;-69
2023/06/24 09:24:34;;;;;;;8.40;6.40;;;34.30;99.90;;;;;;5092409;28;20248;-68
2023/06/24 09:27:00;;;;;;;7.28;6.57;;;34.30;99.90;;;;;;5092190;28;20197;-68
2023/06/24 09:29:36;;;;;;;7.50;6.63;;;33.80;99.90;;;;;;5091835;28;20626;-67
2023/06/24 09:32:05;;;;;;;8.38;6.47;;;34.00;99.90;;;;;;5091032;28;20175;-68
2023/06/24 09:34:31;;;;;;;8.30;6.47;;;34.40;99.90;;;;;;5092209;28;20255;-69
2023/06/24 09:36:58;;;;;;;8.00;7.20;;;35.00;99.90;;;;;;5091982;28;20173;-68
2023/06/24 09:39:30;;;;;;;7.65;6.50;;;35.00;99.90;;;;;;5091537;28;20181;-68
2023/06/24 09:42:01;;;;;;;8.98;8.23;;;34.90;99.90;;;;;;5091826;28;20169;-69
2023/06/24 09:44:28;;;;;;;7.15;6.13;;;34.50;99.90;;;;;;5091883;28;20262;-68
2023/06/24 09:46:58;;;;;;;10.75;9.88;;;34.40;99.90;;;;;;5091936;28;20213;-68
2023/06/24 09:49:24;;;;;;;10.57;9.70;;;34.30;99.90;;;;;;5091506;28;20193;-69
2023/06/24 09:51:54;;;;;;;10.20;9.38;;;34.30;99.90;;;;;;5091695;28;20204;-68
2023/06/24 09:54:21;;;;;;;6.65;6.03;;;34.50;99.90;;;;;;5091803;28;20300;-69
2023/06/24 09:56:49;;;;;;;6.97;6.28;;;34.70;99.90;;;;;;5091541;28;20185;-69
2023/06/24 09:59:17;;;;;;;11.95;11.10;;;34.50;99.90;;;;;;5090953;28;20245;-68
2023/06/24 10:01:44;;;;;;;5.43;4.93;;;34.10;99.90;;;;;;5091713;28;20193;-68
2023/06/24 10:04:19;;;;;;;6.63;6.10;;;33.40;98.90;;;;;;5091497;28;20199;-67
2023/06/24 10:06:45;;;;;;;5.28;4.53;;;33.20;99.90;;;;;;5091571;28;20205;-67
2023/06/24 10:09:13;;;;;;;4.70;4.28;;;33.40;99.90;;;;;;5091479;28;20650;-68
2023/06/24 10:11:39;;;;;;;5.93;5.53;;;33.70;99.90;;;;;;5091387;28;20174;-69
2023/06/24 10:14:05;;;;;;;5.15;4.35;;;33.70;99.90;;;;;;5073547;28;20173;-68
2023/06/24 10:16:31;;;;;;;7.25;3.90;;;33.60;99.50;;;;;;5091573;28;20689;-68
2023/06/24 10:19:01;;;;;;;3.97;3.67;;;33.70;99.20;;;;;;5089458;28;20216;-68
2023/06/24 10:21:52;;;;;;;4.43;4.03;;;33.50;96.00;;;;;;5091353;28;20635;-71
2023/06/24 10:24:29;;;;;;;4.53;4.15;;;32.90;97.90;;;;;;5091484;28;20185;-68
2023/06/24 10:26:54;;;;;;;4.55;4.15;;;32.60;96.50;;;;;;5091578;28;20200;-69
2023/06/24 10:29:34;;;;;;;4.90;4.40;;;32.80;97.50;;;;;;5090417;28;20185;-68
2023/06/24 10:32:04;;;;;;;4.57;3.88;;;32.90;99.90;;;;;;5089725;28;20711;-68
2023/06/24 10:34:38;;;;;;;4.07;3.78;;;33.40;97.60;;;;;;5091414;28;20193;-69
2023/06/24 10:37:31;;;;;;;4.90;4.43;;;33.50;94.30;;;;;;5091524;28;20169;-68
2023/06/24 10:39:58;;;;;;;4.95;4.45;;;33.30;95.90;;;;;;5090926;28;20265;-69
2023/06/24 10:42:30;;;;;;;5.28;4.18;;;33.40;93.60;;;;;;5091161;28;20184;-68
2023/06/24 10:45:12;;;;;;;4.38;4.00;;;33.20;94.20;;;;;;5091466;28;20238;-68
2023/06/24 10:47:39;;;;;;;5.00;4.40;;;33.10;98.40;;;;;;5089827;28;20225;-68
2023/06/24 10:50:07;;;;;;;6.03;4.88;;;33.30;96.50;;;;;;5082306;28;20177;-68
2023/06/24 10:52:38;;;;;;;5.15;4.55;;;32.80;97.60;;;;;;5090581;28;20525;-68
2023/06/24 10:55:04;;;;;;;4.18;3.78;;;32.90;98.30;;;;;;5090862;28;20185;-68
2023/06/24 10:57:30;;;;;;;6.22;4.60;;;33.10;98.00;;;;;;5091294;28;20174;-69
2023/06/24 10:59:57;;;;;;;4.95;4.50;;;33.50;97.00;;;;;;5090720;28;20371;-68
2023/06/24 11:02:25;;;;;;;5.10;4.60;;;34.00;99.10;;;;;;5091071;28;20252;-68
2023/06/24 11:04:55;;;;;;;5.75;5.05;;;34.00;98.50;;;;;;5091112;28;20543;-69
2023/06/24 11:07:30;;;;;;;5.93;4.18;;;34.00;98.10;;;;;;5090981;28;20205;-69
2023/06/24 11:10:03;;;;;;;4.78;4.15;;;34.20;99.50;;;;;;5090655;28;20652;-71
2023/06/24 11:12:31;;;;;;;6.10;5.60;;;34.00;95.20;;;;;;5094404;28;20165;-70
2023/06/24 11:15:01;;;;;;;4.88;3.88;;;33.90;97.90;;;;;;5094726;28;20233;-70
2023/06/24 11:17:27;;;;;;;4.85;3.88;;;33.80;96.80;;;;;;5094958;28;20172;-71
2023/06/24 11:19:54;;;;;;;5.68;5.18;;;33.70;94.90;;;;;;5094521;28;20184;-70
2023/06/24 11:22:20;;;;;;;4.68;4.28;;;33.20;95.60;;;;;;5092836;28;20526;-71
2023/06/24 11:24:45;;;;;;;4.93;4.25;;;32.80;98.10;;;;;;5094373;28;20280;-69
2023/06/24 11:27:11;;;;;;;5.18;3.85;;;32.70;95.50;;;;;;5093957;28;20670;-70
2023/06/24 11:29:37;;;;;;;5.10;4.60;;;32.80;96.10;;;;;;5094394;28;20169;-70
2023/06/24 11:32:03;;;;;;;4.60;4.20;;;32.70;94.80;;;;;;5093281;28;20174;-70
2023/06/24 11:34:29;;;;;;;4.43;4.03;;;32.70;97.20;;;;;;5094443;28;20177;-68
2023/06/24 11:36:55;;;;;;;5.90;5.20;;;32.90;96.30;;;;;;5094500;28;20184;-68
2023/06/24 11:39:25;;;;;;;5.57;4.40;;;32.90;96.30;;;;;;5094048;28;20169;-69
2023/06/24 11:41:52;;;;;;;4.93;4.53;;;33.00;96.20;;;;;;5093866;28;20669;-70
2023/06/24 11:44:21;;;;;;;5.57;5.07;;;33.30;97.50;;;;;;5093316;28;20186;-72
2023/06/24 11:46:47;;;;;;;4.75;4.35;;;33.60;95.80;;;;;;5076105;28;20288;-71
2023/06/24 11:49:14;;;;;;;4.90;4.45;;;33.50;97.50;;;;;;5093498;28;20169;-68
2023/06/24 11:51:49;;;;;;;6.00;4.53;;;33.10;97.00;;;;;;5094046;28;20196;-70
2023/06/24 11:54:17;;;;;;;7.00;6.35;;;32.60;96.30;;;;;;5093772;28;20188;-70
2023/06/24 11:56:44;;;;;;;6.72;6.10;;;32.30;96.40;;;;;;5094087;28;20169;-70
2023/06/24 11:59:26;;;;;;;5.63;5.10;;;32.50;96.50;;;;;;5093625;28;20169;-68
2023/06/24 12:01:59;;;;;;;5.28;4.88;;;33.30;99.20;;;;;;5093867;28;20180;-69
2023/06/24 12:04:29;;;;;;;7.13;6.30;;;34.00;98.00;;;;;;5093823;28;20581;-69
2023/06/24 12:06:54;;;;;;;6.45;4.40;;;34.70;97.10;;;;;;5093583;28;20201;-69
2023/06/24 12:09:20;;;;;;;7.88;4.60;;;35.10;94.80;;;;;;5093702;28;20173;-69
2023/06/24 12:11:45;;;;;;;7.20;5.30;;;34.70;94.80;;;;;;5093762;28;20518;-68
2023/06/24 12:14:11;;;;;;;6.22;5.63;;;34.60;94.70;;;;;;5093570;28;20166;-68
2023/06/24 12:16:39;;;;;;;4.78;4.28;;;34.80;95.60;;;;;;5092164;28;20667;-68
2023/06/24 12:19:04;;;;;;;8.52;5.00;;;34.90;96.30;;;;;;5093334;28;20177;-69
2023/06/24 12:21:30;;;;;;;5.43;4.93;;;34.50;93.30;;;;;;5092655;28;20260;-70
2023/06/24 12:23:55;;;;;;;5.65;5.25;;;33.80;93.80;;;;;;5093591;28;20285;-71
2023/06/24 12:26:21;;;;;;;5.68;5.10;;;33.40;94.30;;;;;;5093234;28;20209;-70
2023/06/24 12:28:46;;;;;;;5.60;5.10;;;33.10;94.80;;;;;;5092972;28;20217;-70
2023/06/24 12:31:12;;;;;;;5.57;5.07;;;33.00;97.30;;;;;;5091941;28;20177;-70
2023/06/24 12:33:38;;;;;;;5.50;5.00;;;33.50;96.30;;;;;;5093497;28;20166;-71
2023/06/24 12:36:03;;;;;;;5.43;4.93;;;33.70;97.20;;;;;;5092318;28;20198;-71
2023/06/24 12:38:29;;;;;;;4.53;4.13;;;34.10;95.70;;;;;;5092738;28;20177;-69
2023/06/24 12:40:55;;;;;;;4.38;4.07;;;34.60;94.30;;;;;;5092373;28;20230;-68